LFSB METAR :   2017/08/18 02:30 LFSB 180230Z 16004KT CAVOK 18/16 Q1018 NOSIG

TAF  2017/08/17 18:21 TAF LFSB 171700Z 1718/1818 21003KT CAVOK PROB40 TEMPO 1811/1813 -SHRA FEW050TCU TEMPO 1813/1818 27015G30KT 4000 TSRA SCT050CB PROB30 TEMPO 1815/1818 1500 TSRAGR